Serenea — SVAC6 — position and weather

sailwx.info

Track history (hours):
 
Tides and Currents Weather Stations Pressure Air Temp Water Temp Dewpoint Dewpoint Depression Visibility Wind Speed Wind Dir Waves Ship Positions

Serenea

Last reported at 2017-Nov-15 03:25 UTC. Time now 2017-Nov-19 14:22 UTC.
Position N 07°58' W 015°10'.

Length 274 m; draft 9.3 m.

Type: Tanker. MMSI: 240797000.

Date/timePositionNaut miles runAvg speedWind from/ knotsBaromVisibWave heightAir tempDewpointWater temp
2017-Nov-15 03:25N 07°58' W 015°10'612.2
2017-Nov-15 02:56N 08°02' W 015°14'8012.3
2017-Nov-14 20:23N 08°58' W 016°12'4312.3
2017-Nov-14 16:54N 09°27' W 016°43'  
2017-Nov-11 14:12N 23°59' W 017°22'813.8
2017-Nov-11 13:39N 24°06' W 017°19'313.9
2017-Nov-11 13:28N 24°08' W 017°18'613.7
2017-Nov-11 13:00N 24°14' W 017°16'2213.4
2017-Nov-11 11:23N 24°35' W 017°09'612.8
2017-Nov-11 10:57N 24°40' W 017°07'612.7
2017-Nov-11 10:29N 24°46' W 017°05'7212.9
2017-Nov-11 04:53N 25°50' W 016°28'12914.2
2017-Nov-10 19:51N 27°41' W 015°15'513.1
2017-Nov-10 19:30N 27°45' W 015°12'613.2
2017-Nov-10 19:00N 27°51' W 015°09'713.6
2017-Nov-10 18:30N 27°57' W 015°06'713.9
2017-Nov-10 18:00N 28°03' W 015°03'714.0
2017-Nov-10 17:30N 28°10' W 014°60'713.8
2017-Nov-10 17:00N 28°16' W 014°58'713.8
2017-Nov-10 16:30N 28°23' W 014°55'713.8
2017-Nov-10 16:00N 28°29' W 014°52'714.0
2017-Nov-10 15:30N 28°36' W 014°50'713.7
2017-Nov-10 14:58N 28°43' W 014°47'613.5
2017-Nov-10 14:29N 28°49' W 014°45'713.4
2017-Nov-10 13:56N 28°56' W 014°43'613.3
2017-Nov-10 13:30N 29°02' W 014°41'813.3
2017-Nov-10 12:54N 29°10' W 014°39'713.2
2017-Nov-10 12:21N 29°17' W 014°36'613.2
2017-Nov-10 11:53N 29°22' W 014°34'513.1
2017-Nov-10 11:30N 29°27' W 014°32'712.9
2017-Nov-10 10:58N 29°34' W 014°30'612.9
2017-Nov-10 10:29N 29°40' W 014°27'613.0
2017-Nov-10 10:00N 29°46' W 014°25'612.5
2017-Nov-10 09:30N 29°51' W 014°22'612.4
2017-Nov-10 09:00N 29°57' W 014°20'612.4
2017-Nov-10 08:30N 30°03' W 014°18'612.4
2017-Nov-10 08:01N 30°09' W 014°15'612.4
2017-Nov-10 07:30N 30°15' W 014°13'612.5
2017-Nov-10 07:00N 30°21' W 014°10'612.2
2017-Nov-10 06:30N 30°26' W 014°08'612.4
2017-Nov-10 06:00N 30°32' W 014°06'712.4
2017-Nov-10 05:28N 30°39' W 014°03'812.1
2017-Nov-10 04:47N 30°46' W 014°00'512.2
2017-Nov-10 04:21N 30°51' W 013°58'412.1
2017-Nov-10 04:00N 30°55' W 013°56'612.4
2017-Nov-10 03:29N 31°01' W 013°54'712.2
2017-Nov-10 02:57N 31°08' W 013°52'512.1
2017-Nov-10 02:30N 31°13' W 013°50'612.0
2017-Nov-10 02:00N 31°18' W 013°47'612.3
2017-Nov-10 01:30N 31°24' W 013°45'712.7
2017-Nov-10 00:58N 31°31' W 013°42'612.7
2017-Nov-10 00:30N 31°36' W 013°40'812.6
2017-Nov-09 23:54N 31°43' W 013°37'612.7
2017-Nov-09 23:27N 31°49' W 013°34'812.8
2017-Nov-09 22:48N 31°57' W 013°31'3212.9
2017-Nov-09 20:19N 32°27' W 013°19'  
Track history (hours):
 
Tides and Currents Weather Stations Pressure Air Temp Water Temp Dewpoint Dewpoint Depression Visibility Wind Speed Wind Dir Waves Ship Positions

Serenea

Last reported at 2017-Nov-15 03:25 UTC. Time now 2017-Nov-19 14:22 UTC.
Position N 07°58' W 015°10'.

Length 274 m; draft 9.3 m.

Type: Tanker. MMSI: 240797000.

Date/timePositionNaut miles runAvg speedWind from/ knotsBaromVisibWave heightAir tempDewpointWater temp
2017-Nov-15 03:25N 07°58' W 015°10'612.2
2017-Nov-15 02:56N 08°02' W 015°14'8012.3
2017-Nov-14 20:23N 08°58' W 016°12'4312.3
2017-Nov-14 16:54N 09°27' W 016°43'  
2017-Nov-11 14:12N 23°59' W 017°22'813.8
2017-Nov-11 13:39N 24°06' W 017°19'313.9
2017-Nov-11 13:28N 24°08' W 017°18'613.7
2017-Nov-11 13:00N 24°14' W 017°16'2213.4
2017-Nov-11 11:23N 24°35' W 017°09'612.8
2017-Nov-11 10:57N 24°40' W 017°07'612.7
2017-Nov-11 10:29N 24°46' W 017°05'7212.9
2017-Nov-11 04:53N 25°50' W 016°28'12914.2
2017-Nov-10 19:51N 27°41' W 015°15'513.1
2017-Nov-10 19:30N 27°45' W 015°12'613.2
2017-Nov-10 19:00N 27°51' W 015°09'713.6
2017-Nov-10 18:30N 27°57' W 015°06'713.9
2017-Nov-10 18:00N 28°03' W 015°03'714.0
2017-Nov-10 17:30N 28°10' W 014°60'713.8
2017-Nov-10 17:00N 28°16' W 014°58'713.8
2017-Nov-10 16:30N 28°23' W 014°55'713.8
2017-Nov-10 16:00N 28°29' W 014°52'714.0
2017-Nov-10 15:30N 28°36' W 014°50'713.7
2017-Nov-10 14:58N 28°43' W 014°47'613.5
2017-Nov-10 14:29N 28°49' W 014°45'713.4
2017-Nov-10 13:56N 28°56' W 014°43'613.3
2017-Nov-10 13:30N 29°02' W 014°41'813.3
2017-Nov-10 12:54N 29°10' W 014°39'713.2
2017-Nov-10 12:21N 29°17' W 014°36'613.2
2017-Nov-10 11:53N 29°22' W 014°34'513.1
2017-Nov-10 11:30N 29°27' W 014°32'712.9
2017-Nov-10 10:58N 29°34' W 014°30'612.9
2017-Nov-10 10:29N 29°40' W 014°27'613.0
2017-Nov-10 10:00N 29°46' W 014°25'612.5
2017-Nov-10 09:30N 29°51' W 014°22'612.4
2017-Nov-10 09:00N 29°57' W 014°20'612.4
2017-Nov-10 08:30N 30°03' W 014°18'612.4
2017-Nov-10 08:01N 30°09' W 014°15'612.4
2017-Nov-10 07:30N 30°15' W 014°13'612.5
2017-Nov-10 07:00N 30°21' W 014°10'612.2
2017-Nov-10 06:30N 30°26' W 014°08'612.4
2017-Nov-10 06:00N 30°32' W 014°06'712.4
2017-Nov-10 05:28N 30°39' W 014°03'812.1
2017-Nov-10 04:47N 30°46' W 014°00'512.2
2017-Nov-10 04:21N 30°51' W 013°58'412.1
2017-Nov-10 04:00N 30°55' W 013°56'612.4
2017-Nov-10 03:29N 31°01' W 013°54'712.2
2017-Nov-10 02:57N 31°08' W 013°52'512.1
2017-Nov-10 02:30N 31°13' W 013°50'612.0
2017-Nov-10 02:00N 31°18' W 013°47'612.3
2017-Nov-10 01:30N 31°24' W 013°45'712.7
2017-Nov-10 00:58N 31°31' W 013°42'612.7
2017-Nov-10 00:30N 31°36' W 013°40'812.6
2017-Nov-09 23:54N 31°43' W 013°37'612.7
2017-Nov-09 23:27N 31°49' W 013°34'812.8
2017-Nov-09 22:48N 31°57' W 013°31'3212.9
2017-Nov-09 20:19N 32°27' W 013°19'  

Dump ship's entire track history